KFAF/FAF METAR and TAF weather

Enter ICAO airport designator
Station Type Date Time Source
KFAF METAR 2021/08/05 04:56 UTC NOAA

KFAF 050456Z AUTO 01004KT 10SM FEW015 BKN160 21/18 A3006 RMK AO2 SLP183 T02050184 402250194 $


Station Type Date Time Source
KFAF Decoded METAR 2021/08/05 04:56 UTC NOAA

Fort Eustis / Felker, VA, United States (KFAF) 37-08N 076-37W
Aug 05, 2021 - 12:56 AM EDT / 2021.08.05 0456 UTC
Wind: from the N (010 degrees) at 5 MPH (4 KT):0
Visibility: 10 mile(s):0
Sky conditions: mostly cloudy
Temperature: 68.9 F (20.5 C)
Dew Point: 65.1 F (18.4 C)
Relative Humidity: 87%
Pressure (altimeter): 30.06 in. Hg (1017 hPa)
ob: KFAF 050456Z AUTO 01004KT 10SM FEW015 BKN160 21/18 A3006 RMK AO2 SLP183 T02050184 402250194
cycle: 5

Station Type Date Time Source
KFAF TAF 2021/08/05 02:05 UTC NOAA

TAF KFAF 050200Z 0502/0608 01009KT 9999 SCT010 OVC020 QNH3006INS
BECMG 0506/0507 02009KT 9999 FEW035 BKN090 QNH3007INS TX27/0520Z TN18/0508Z LAST NO
AMDS AFT 0503 NEXT 0510

Example: see airport list